Nearby METAR Reports

KLWM - Lawrence,MA, USA
Distance from station: NE 12mi, 19km
Updated: Mon, 19-Feb-2018 5:54am EST
Clear
Clear
 Wind from calm
Wind: Calm
Temperature: 21°F , -6°C
Dew Point: 18°F , -8°C
Humidity: 86%
Barometer: 30.56 inHg , 1034.9 hPa
Clouds: Clear
Visibility: 10 miles , 16 km
2018/02/19 10:54 KLWM 191054Z AUTO 00000KT 10SM CLR M06/M08 A3056 RMK AO2 SLP349 T10611083
KBED - Bedford,MA, USA
Distance from station: SSE 12mi, 19km
Updated: Mon, 19-Feb-2018 5:56am EST
Clear
Clear
 Wind from calm
Wind: Calm
Temperature: 18°F , -8°C
Dew Point: 18°F , -8°C
Humidity: 100%
Barometer: 30.53 inHg , 1033.9 hPa
Clouds: Clear
Visibility: 10 miles , 16 km
2018/02/19 10:56 KBED 191056Z AUTO 00000KT 10SM CLR M08/M08 A3053 RMK AO2 SLP356 I1000 T10781083

Metar display script from Saratoga-Weather.org